Time;durP1;ratioP1;P1;durP2;ratioP2;P2;SDS_P1;SDS_P2;PMS_P1;PMS_P2;Temp;Humidity;BMP_temperature;BMP_pressure;BME280_temperature;BME280_humidity;BME280_pressure;Samples;Min_cycle;Max_cycle;Signal;HPM_P1;HPM_P2
2023/05/15 00:01:32;;;;;;;1.67;1.57;;;;;;;;;;5014168;28;58601;-59
2023/05/15 00:03:58;;;;;;;2.97;1.20;;;;;;;;;;5014968;28;58215;-60
2023/05/15 00:06:23;;;;;;;1.43;1.33;;;;;;;;;;5011512;28;59083;-60
2023/05/15 00:08:48;;;;;;;1.00;1.00;;;;;;;;;;5015243;28;58660;-60
2023/05/15 00:11:13;;;;;;;1.00;1.00;;;;;;;;;;5016432;28;58444;-59
2023/05/15 00:13:38;;;;;;;2.67;1.10;;;;;;;;;;5013472;28;58302;-59
2023/05/15 00:16:07;;;;;;;1.13;1.10;;;;;;;;;;5011998;28;58819;-59
2023/05/15 00:18:32;;;;;;;1.35;1.25;;;;;;;;;;5014480;28;58377;-60
2023/05/15 00:20:57;;;;;;;1.47;1.33;;;;;;;;;;5016278;28;59492;-56
2023/05/15 00:23:22;;;;;;;1.13;1.10;;;;;;;;;;5017084;28;58840;-57
2023/05/15 00:25:48;;;;;;;1.40;1.30;;;;;;;;;;5017958;28;58374;-60
2023/05/15 00:28:13;;;;;;;1.33;1.23;;;;;;;;;;5010577;28;58545;-59
2023/05/15 00:30:38;;;;;;;1.67;1.57;;;;;;;;;;5019102;28;59382;-60
2023/05/15 00:33:03;;;;;;;1.40;1.30;;;;;;;;;;5015810;28;59086;-59
2023/05/15 00:35:28;;;;;;;1.58;1.48;;;;;;;;;;5015896;28;58847;-59
2023/05/15 00:37:53;;;;;;;1.33;1.25;;;;;;;;;;5013703;28;58371;-60
2023/05/15 00:40:20;;;;;;;1.23;1.17;;;;;;;;;;5018766;28;58426;-59
2023/05/15 00:42:45;;;;;;;1.30;1.20;;;;;;;;;;5012002;28;58801;-60
2023/05/15 00:45:11;;;;;;;1.50;1.40;;;;;;;;;;5015139;28;58747;-57
2023/05/15 00:47:37;;;;;;;1.45;1.35;;;;;;;;;;5011103;28;59417;-60
2023/05/15 00:50:03;;;;;;;1.42;1.33;;;;;;;;;;5015648;28;58726;-58
2023/05/15 00:52:28;;;;;;;1.38;1.27;;;;;;;;;;5014140;28;58338;-60
2023/05/15 00:54:53;;;;;;;1.50;1.40;;;;;;;;;;5014023;28;58369;-59
2023/05/15 00:57:18;;;;;;;1.52;1.42;;;;;;;;;;5015784;28;58582;-59
2023/05/15 00:59:44;;;;;;;1.20;1.15;;;;;;;;;;5013534;28;58907;-56
2023/05/15 01:02:09;;;;;;;1.50;1.40;;;;;;;;;;5021471;28;58398;-59
2023/05/15 01:04:35;;;;;;;1.52;1.42;;;;;;;;;;5021406;28;59286;-60
2023/05/15 01:07:00;;;;;;;0.90;0.90;;;;;;;;;;5017752;28;59030;-60
2023/05/15 01:09:27;;;;;;;1.60;1.50;;;;;;;;;;5013241;28;58756;-60
2023/05/15 01:11:53;;;;;;;1.40;1.33;;;;;;;;;;5017195;28;60184;-60
2023/05/15 01:14:19;;;;;;;1.63;1.52;;;;;;;;;;5019730;28;59286;-59
2023/05/15 01:16:44;;;;;;;1.70;1.60;;;;;;;;;;5023158;28;58509;-58
2023/05/15 01:19:10;;;;;;;1.80;1.70;;;;;;;;;;5016083;28;58708;-60
2023/05/15 01:21:35;;;;;;;1.30;1.30;;;;;;;;;;5017127;28;58422;-59
2023/05/15 01:24:15;;;;;;;1.48;1.40;;;;;;;;;;5020712;28;58440;-60
2023/05/15 01:26:40;;;;;;;1.80;1.70;;;;;;;;;;5020166;28;58682;-59
2023/05/15 01:29:11;;;;;;;2.53;1.50;;;;;;;;;;5018490;28;58492;-59
2023/05/15 01:31:37;;;;;;;1.17;1.10;;;;;;;;;;5016193;28;58856;-59
2023/05/15 01:34:05;;;;;;;1.50;1.40;;;;;;;;;;5018020;28;59255;-58
2023/05/15 01:36:36;;;;;;;1.73;1.63;;;;;;;;;;5017907;28;58422;-60
2023/05/15 01:39:02;;;;;;;1.33;1.25;;;;;;;;;;5020895;28;59114;-60
2023/05/15 01:41:33;;;;;;;1.30;1.30;;;;;;;;;;5018542;28;59739;-60
2023/05/15 01:44:04;;;;;;;1.73;1.60;;;;;;;;;;5015580;28;59933;-58
2023/05/15 01:46:30;;;;;;;1.90;1.80;;;;;;;;;;5013373;28;58527;-60
2023/05/15 01:48:56;;;;;;;1.80;1.70;;;;;;;;;;5015675;28;58437;-60
2023/05/15 01:51:23;;;;;;;1.80;1.70;;;;;;;;;;5015122;28;58559;-60
2023/05/15 01:53:49;;;;;;;1.80;1.70;;;;;;;;;;5011236;28;58570;-60
2023/05/15 01:56:16;;;;;;;1.52;1.42;;;;;;;;;;5018737;28;58347;-60
2023/05/15 01:58:41;;;;;;;1.92;1.83;;;;;;;;;;5017086;28;58286;-59
2023/05/15 02:01:08;;;;;;;1.67;1.58;;;;;;;;;;5013813;28;58362;-59
2023/05/15 02:03:33;;;;;;;1.63;1.45;;;;;;;;;;5014199;28;58679;-60
2023/05/15 02:05:59;;;;;;;2.33;2.17;;;;;;;;;;5014612;28;58983;-58
2023/05/15 02:08:27;;;;;;;1.80;1.70;;;;;;;;;;5015810;28;58456;-59
2023/05/15 02:10:52;;;;;;;;;;;;;;;;;;5018204;28;58882;-60
2023/05/15 02:13:18;;;;;;;1.75;1.65;;;;;;;;;;5013335;28;58648;-60
2023/05/15 02:15:44;;;;;;;1.65;1.55;;;;;;;;;;5014118;28;58318;-56
2023/05/15 02:18:10;;;;;;;1.57;1.47;;;;;;;;;;5017723;28;59559;-60
2023/05/15 02:20:35;;;;;;;2.10;2.00;;;;;;;;;;5013288;28;58473;-60
2023/05/15 02:23:00;;;;;;;1.90;1.80;;;;;;;;;;5013293;28;58349;-59
2023/05/15 02:25:30;;;;;;;1.80;1.70;;;;;;;;;;5013916;28;58887;-58
2023/05/15 02:27:59;;;;;;;2.17;2.08;;;;;;;;;;5017023;28;58342;-60
2023/05/15 02:30:30;;;;;;;3.30;1.95;;;;;;;;;;5014362;28;58420;-59
2023/05/15 02:33:17;;;;;;;1.73;1.63;;;;;;;;;;5013350;28;58657;-60
2023/05/15 02:36:02;;;;;;;1.95;1.85;;;;;;;;;;5016999;28;58387;-57
2023/05/15 02:38:28;;;;;;;1.50;1.50;;;;;;;;;;5014597;28;58473;-60
2023/05/15 02:40:55;;;;;;;1.73;1.63;;;;;;;;;;5020120;28;58609;-60
2023/05/15 02:43:20;;;;;;;2.13;1.98;;;;;;;;;;5014789;28;58640;-60
2023/05/15 02:45:46;;;;;;;2.10;2.00;;;;;;;;;;5011895;28;58970;-60
2023/05/15 02:48:12;;;;;;;2.10;2.00;;;;;;;;;;5013842;28;58521;-58
2023/05/15 02:50:38;;;;;;;2.60;2.40;;;;;;;;;;5016937;28;58611;-60
2023/05/15 02:53:03;;;;;;;2.47;2.28;;;;;;;;;;5016882;28;58848;-60
2023/05/15 02:55:29;;;;;;;1.83;1.73;;;;;;;;;;5013280;28;59007;-59
2023/05/15 02:57:54;;;;;;;1.92;1.83;;;;;;;;;;5014814;28;58924;-59
2023/05/15 03:00:19;;;;;;;2.23;2.07;;;;;;;;;;5015524;28;60095;-59
2023/05/15 03:02:44;;;;;;;2.03;1.93;;;;;;;;;;5013288;28;58970;-56
2023/05/15 03:05:09;;;;;;;1.90;1.80;;;;;;;;;;5017754;28;58886;-59
2023/05/15 03:07:35;;;;;;;2.40;2.20;;;;;;;;;;5015246;28;58918;-60
2023/05/15 03:10:00;;;;;;;2.60;2.43;;;;;;;;;;5017709;28;58389;-60
2023/05/15 03:12:25;;;;;;;2.10;2.00;;;;;;;;;;5016528;28;58596;-60
2023/05/15 03:14:50;;;;;;;2.03;1.92;;;;;;;;;;5011381;28;58597;-59
2023/05/15 03:17:15;;;;;;;2.22;2.08;;;;;;;;;;5017219;28;59169;-59
2023/05/15 03:19:40;;;;;;;4.20;2.40;;;;;;;;;;5018205;28;58644;-59
2023/05/15 03:22:06;;;;;;;2.30;2.20;;;;;;;;;;5013398;28;58998;-60
2023/05/15 03:24:31;;;;;;;1.75;1.65;;;;;;;;;;5011615;28;58676;-60
2023/05/15 03:26:56;;;;;;;2.83;2.63;;;;;;;;;;5012592;28;58500;-59
2023/05/15 03:29:21;;;;;;;2.20;2.03;;;;;;;;;;5015928;28;58486;-57
2023/05/15 03:31:46;;;;;;;3.45;2.50;;;;;;;;;;5015904;28;58440;-59
2023/05/15 03:34:11;;;;;;;2.65;2.45;;;;;;;;;;5017144;28;58706;-60
2023/05/15 03:36:36;;;;;;;2.50;2.30;;;;;;;;;;5014287;28;58836;-60
2023/05/15 03:39:02;;;;;;;2.50;2.00;;;;;;;;;;5017677;28;58785;-60
2023/05/15 03:41:27;;;;;;;2.30;2.10;;;;;;;;;;5013870;28;58774;-60
2023/05/15 03:43:52;;;;;;;2.13;2.03;;;;;;;;;;5014900;28;58628;-60
2023/05/15 03:46:17;;;;;;;2.23;2.03;;;;;;;;;;5012962;28;58377;-60
2023/05/15 03:48:42;;;;;;;1.98;1.88;;;;;;;;;;5015694;28;58773;-59
2023/05/15 03:51:07;;;;;;;2.10;2.00;;;;;;;;;;5013654;28;58887;-58
2023/05/15 03:53:32;;;;;;;2.25;2.15;;;;;;;;;;5012471;28;58528;-59
2023/05/15 03:55:58;;;;;;;2.80;2.60;;;;;;;;;;5013770;28;58602;-60
2023/05/15 03:58:23;;;;;;;2.90;2.70;;;;;;;;;;5016081;28;58366;-60
2023/05/15 04:00:48;;;;;;;2.70;2.50;;;;;;;;;;5015390;28;58479;-59
2023/05/15 04:03:13;;;;;;;2.67;2.42;;;;;;;;;;5012849;28;58592;-59
2023/05/15 04:05:38;;;;;;;2.73;2.53;;;;;;;;;;5011799;28;58430;-60
2023/05/15 04:08:04;;;;;;;2.45;2.25;;;;;;;;;;5012760;28;58386;-58
2023/05/15 04:10:30;;;;;;;2.70;2.53;;;;;;;;;;5018203;28;58443;-60
2023/05/15 04:12:56;;;;;;;2.70;2.50;;;;;;;;;;5012087;28;58458;-59
2023/05/15 04:15:22;;;;;;;1.95;1.85;;;;;;;;;;5013326;28;58735;-58
2023/05/15 04:17:48;;;;;;;2.70;2.50;;;;;;;;;;5016253;28;58883;-59
2023/05/15 04:20:14;;;;;;;2.65;2.45;;;;;;;;;;5014994;28;58473;-59
2023/05/15 04:22:43;;;;;;;2.67;2.47;;;;;;;;;;5017267;28;59051;-59
2023/05/15 04:25:09;;;;;;;2.67;2.47;;;;;;;;;;5016342;28;59496;-60
2023/05/15 04:27:35;;;;;;;2.47;2.20;;;;;;;;;;5009439;28;59274;-57
2023/05/15 04:30:00;;;;;;;2.38;2.28;;;;;;;;;;5018802;28;59077;-60
2023/05/15 04:32:26;;;;;;;2.22;2.13;;;;;;;;;;5019038;28;58558;-61
2023/05/15 04:34:51;;;;;;;2.30;2.10;;;;;;;;;;5024500;28;58892;-57
2023/05/15 04:37:16;;;;;;;2.90;2.70;;;;;;;;;;5022503;28;58636;-59
2023/05/15 04:39:41;;;;;;;3.30;3.00;;;;;;;;;;5021660;28;58613;-59
2023/05/15 04:42:06;;;;;;;2.60;2.40;;;;;;;;;;5018748;28;58422;-59
2023/05/15 04:44:32;;;;;;;3.17;2.97;;;;;;;;;;5020160;28;58811;-59
2023/05/15 04:46:57;;;;;;;3.60;3.30;;;;;;;;;;5021791;28;58332;-59
2023/05/15 04:49:22;;;;;;;4.07;3.70;;;;;;;;;;5020755;28;58737;-58
2023/05/15 04:51:48;;;;;;;5.57;5.07;;;;;;;;;;5018554;28;58872;-59
2023/05/15 04:54:13;;;;;;;17.10;11.57;;;;;;;;;;5013679;28;58627;-59
2023/05/15 04:56:38;;;;;;;16.20;11.27;;;;;;;;;;5028914;28;59036;-60
2023/05/15 04:59:03;;;;;;;19.05;13.65;;;;;;;;;;5028908;28;58738;-59
2023/05/15 05:01:28;;;;;;;13.13;10.97;;;;;;;;;;5027809;28;59014;-59
2023/05/15 05:03:53;;;;;;;10.10;9.10;;;;;;;;;;5023883;28;58610;-60
2023/05/15 05:06:18;;;;;;;10.77;8.90;;;;;;;;;;5028047;28;58711;-60
2023/05/15 05:08:44;;;;;;;9.90;8.90;;;;;;;;;;5028869;28;58849;-60
2023/05/15 05:11:09;;;;;;;10.30;8.67;;;;;;;;;;5029194;28;58539;-59
2023/05/15 05:13:34;;;;;;;11.57;7.93;;;;;;;;;;5029100;28;59202;-60
2023/05/15 05:15:59;;;;;;;8.57;7.88;;;;;;;;;;5021911;28;58859;-60
2023/05/15 05:18:25;;;;;;;10.23;7.63;;;;;;;;;;5031242;28;58352;-58
2023/05/15 05:20:57;;;;;;;7.80;6.82;;;;;;;;;;5030183;28;58941;-59
2023/05/15 05:23:22;;;;;;;7.75;6.63;;;;;;;;;;5028882;28;59230;-60
2023/05/15 05:25:47;;;;;;;7.47;6.50;;;;;;;;;;5025235;28;58361;-56
2023/05/15 05:28:12;;;;;;;8.00;6.32;;;;;;;;;;5030241;28;58311;-58
2023/05/15 05:30:38;;;;;;;8.60;6.07;;;;;;;;;;5029772;28;58390;-60
2023/05/15 05:33:03;;;;;;;6.45;5.53;;;;;;;;;;5030632;28;58592;-59
2023/05/15 05:35:28;;;;;;;6.90;6.13;;;;;;;;;;5022912;28;58860;-60
2023/05/15 05:37:53;;;;;;;6.13;5.63;;;;;;;;;;5028353;28;58828;-59
2023/05/15 05:40:18;;;;;;;8.32;7.07;;;;;;;;;;5030121;28;58495;-59
2023/05/15 05:42:43;;;;;;;6.22;5.05;;;;;;;;;;5029346;28;58494;-60
2023/05/15 05:45:09;;;;;;;8.35;5.70;;;;;;;;;;5028588;28;58517;-60
2023/05/15 05:47:34;;;;;;;6.75;5.50;;;;;;;;;;5023227;28;58424;-60
2023/05/15 05:49:59;;;;;;;5.30;4.83;;;;;;;;;;5028374;28;58600;-59
2023/05/15 05:52:25;;;;;;;6.17;4.83;;;;;;;;;;5026873;28;58324;-59
2023/05/15 05:54:50;;;;;;;5.13;4.63;;;;;;;;;;5028548;28;59094;-60
2023/05/15 05:57:15;;;;;;;7.60;4.70;;;;;;;;;;5020093;28;58425;-60
2023/05/15 05:59:40;;;;;;;7.13;4.97;;;;;;;;;;5029112;28;58297;-60
2023/05/15 06:02:07;;;;;;;6.25;5.13;;;;;;;;;;5028497;28;58800;-59
2023/05/15 06:04:32;;;;;;;4.90;4.50;;;;;;;;;;5028282;28;58442;-60
2023/05/15 06:06:58;;;;;;;4.80;4.35;;;;;;;;;;5021244;28;59071;-59
2023/05/15 06:09:23;;;;;;;5.25;4.35;;;;;;;;;;5027604;28;58666;-59
2023/05/15 06:11:48;;;;;;;5.93;5.43;;;;;;;;;;5027288;28;58568;-59
2023/05/15 06:14:13;;;;;;;4.43;4.03;;;;;;;;;;5029238;28;59005;-59
2023/05/15 06:16:38;;;;;;;4.57;4.13;;;;;;;;;;5028150;28;58269;-59
2023/05/15 06:19:03;;;;;;;5.37;3.60;;;;;;;;;;5022558;28;58972;-59
2023/05/15 06:21:29;;;;;;;7.25;3.75;;;;;;;;;;5029208;28;58530;-57
2023/05/15 06:23:54;;;;;;;5.10;4.63;;;;;;;;;;5029759;28;58904;-60
2023/05/15 06:26:20;;;;;;;5.53;4.22;;;;;;;;;;5029790;28;59143;-59
2023/05/15 06:28:45;;;;;;;3.85;3.55;;;;;;;;;;5022696;28;58576;-58
2023/05/15 06:31:10;;;;;;;4.72;3.72;;;;;;;;;;5028306;28;58334;-59
2023/05/15 06:33:36;;;;;;;4.50;3.78;;;;;;;;;;5028689;28;58723;-60
2023/05/15 06:36:01;;;;;;;4.43;4.03;;;;;;;;;;5027719;28;58604;-59
2023/05/15 06:38:26;;;;;;;3.90;3.50;;;;;;;;;;5021160;28;58432;-60
2023/05/15 06:40:51;;;;;;;3.88;3.58;;;;;;;;;;5027872;28;58387;-60
2023/05/15 06:43:16;;;;;;;3.70;3.40;;;;;;;;;;5027700;28;58690;-60
2023/05/15 06:45:41;;;;;;;2.87;2.67;;;;;;;;;;5029424;28;58437;-60
2023/05/15 06:48:06;;;;;;;6.55;4.10;;;;;;;;;;5027489;28;58573;-57
2023/05/15 06:50:32;;;;;;;3.93;3.27;;;;;;;;;;5022779;28;58945;-60
2023/05/15 06:52:57;;;;;;;3.35;3.05;;;;;;;;;;5029689;28;58859;-60
2023/05/15 06:55:22;;;;;;;3.42;3.13;;;;;;;;;;5026546;28;59335;-60
2023/05/15 06:57:47;;;;;;;5.90;3.78;;;;;;;;;;5037951;27;58811;-58
2023/05/15 07:00:13;;;;;;;3.63;3.33;;;;;;;;;;5035145;28;59857;-59
2023/05/15 07:02:38;;;;;;;2.75;2.55;;;;;;;;;;5037749;27;59148;-57
2023/05/15 07:05:29;;;;;;;3.83;3.43;;;;;;;;;;5040267;28;58410;-59
2023/05/15 07:07:54;;;;;;;2.78;2.58;;;;;;;;;;5038642;28;62866;-60
2023/05/15 07:10:19;;;;;;;2.97;2.50;;;;;;;;;;5037089;28;58885;-58
2023/05/15 07:12:45;;;;;;;3.30;2.80;;;;;;;;;;5040395;28;59221;-58
2023/05/15 07:15:10;;;;;;;3.33;3.03;;;;;;;;;;5038042;28;58819;-58
2023/05/15 07:17:35;;;;;;;4.20;2.83;;;;;;;;;;5039868;28;58527;-60
2023/05/15 07:20:00;;;;;;;4.00;2.53;;;;;;;;;;5039590;28;59238;-59
2023/05/15 07:22:26;;;;;;;4.30;3.37;;;;;;;;;;5032390;27;58505;-60
2023/05/15 07:24:51;;;;;;;3.13;2.90;;;;;;;;;;5038197;28;58334;-59
2023/05/15 07:27:16;;;;;;;3.13;2.92;;;;;;;;;;5038469;28;58444;-59
2023/05/15 07:29:41;;;;;;;5.80;2.67;;;;;;;;;;5038835;28;58661;-60
2023/05/15 07:32:06;;;;;;;2.30;2.15;;;;;;;;;;5036283;28;58968;-60
2023/05/15 07:34:31;;;;;;;2.28;2.08;;;;;;;;;;5037182;28;59137;-60
2023/05/15 07:36:56;;;;;;;3.17;2.60;;;;;;;;;;5039316;28;58463;-57
2023/05/15 07:39:22;;;;;;;2.03;1.93;;;;;;;;;;5038872;28;58763;-59
2023/05/15 07:41:47;;;;;;;2.30;2.15;;;;;;;;;;5034063;28;58522;-58
2023/05/15 07:44:12;;;;;;;2.43;2.10;;;;;;;;;;5036971;28;58296;-60
2023/05/15 07:46:37;;;;;;;1.95;1.85;;;;;;;;;;5038250;28;59262;-57
2023/05/15 07:49:03;;;;;;;3.17;2.88;;;;;;;;;;5038882;28;58738;-59
2023/05/15 07:51:28;;;;;;;3.23;2.17;;;;;;;;;;5039843;28;58690;-60
2023/05/15 07:53:53;;;;;;;2.65;2.40;;;;;;;;;;5022137;28;58627;-58
2023/05/15 07:56:18;;;;;;;2.60;2.40;;;;;;;;;;5027510;28;58597;-59
2023/05/15 07:58:43;;;;;;;2.20;2.00;;;;;;;;;;5027935;28;58503;-60
2023/05/15 08:01:08;;;;;;;2.77;2.57;;;;;;;;;;5026311;28;59284;-59
2023/05/15 08:03:33;;;;;;;2.70;2.50;;;;;;;;;;5020671;28;58335;-60
2023/05/15 08:05:59;;;;;;;2.67;2.47;;;;;;;;;;5027357;28;58327;-59
2023/05/15 08:08:24;;;;;;;2.27;2.10;;;;;;;;;;5026775;28;58488;-60
2023/05/15 08:10:49;;;;;;;2.50;2.30;;;;;;;;;;5029129;28;58944;-59
2023/05/15 08:13:14;;;;;;;2.20;2.10;;;;;;;;;;5018951;28;59061;-60
2023/05/15 08:15:39;;;;;;;3.70;2.63;;;;;;;;;;5026012;28;58554;-59
2023/05/15 08:18:08;;;;;;;2.63;2.43;;;;;;;;;;5028302;28;58792;-60
2023/05/15 08:20:34;;;;;;;2.83;2.55;;;;;;;;;;5027689;28;58462;-60
2023/05/15 08:22:59;;;;;;;2.33;2.13;;;;;;;;;;5025953;28;58633;-60
2023/05/15 08:25:24;;;;;;;1.80;1.70;;;;;;;;;;5021100;28;58379;-57
2023/05/15 08:27:49;;;;;;;3.95;2.22;;;;;;;;;;5026116;28;58637;-59
2023/05/15 08:30:14;;;;;;;1.90;1.80;;;;;;;;;;5026889;28;58411;-58
2023/05/15 08:32:41;;;;;;;2.08;1.98;;;;;;;;;;5028142;28;58563;-60
2023/05/15 08:35:06;;;;;;;2.90;2.17;;;;;;;;;;5023960;28;58477;-59
2023/05/15 08:37:32;;;;;;;3.40;2.40;;;;;;;;;;5027931;28;58448;-59
2023/05/15 08:39:57;;;;;;;2.10;2.00;;;;;;;;;;5026395;28;59512;-58
2023/05/15 08:42:34;;;;;;;2.28;1.90;;;;;;;;;;5027409;28;58373;-60
2023/05/15 08:44:59;;;;;;;2.30;2.10;;;;;;;;;;5018384;28;59011;-60
2023/05/15 08:47:26;;;;;;;2.13;1.95;;;;;;;;;;5025859;28;58386;-59
2023/05/15 08:49:59;;;;;;;2.78;2.58;;;;;;;;;;5028445;28;59552;-59
2023/05/15 08:52:25;;;;;;;2.40;2.20;;;;;;;;;;5026748;28;59124;-57
2023/05/15 08:54:50;;;;;;;2.80;2.60;;;;;;;;;;5020862;28;58597;-60
2023/05/15 08:57:15;;;;;;;2.22;2.08;;;;;;;;;;5025170;28;59482;-60
2023/05/15 08:59:41;;;;;;;2.23;2.10;;;;;;;;;;5026921;28;58545;-60
2023/05/15 09:02:06;;;;;;;2.40;2.30;;;;;;;;;;5026536;28;58804;-60
2023/05/15 09:04:31;;;;;;;2.10;2.00;;;;;;;;;;5027224;28;58320;-59
2023/05/15 09:06:59;;;;;;;2.28;2.08;;;;;;;;;;5019917;28;58879;-60
2023/05/15 09:09:25;;;;;;;2.20;2.10;;;;;;;;;;5026995;28;58200;-60
2023/05/15 09:11:51;;;;;;;1.92;1.83;;;;;;;;;;5024600;28;58602;-59
2023/05/15 09:14:16;;;;;;;2.50;2.30;;;;;;;;;;5026458;28;58404;-60
2023/05/15 09:16:42;;;;;;;2.67;2.47;;;;;;;;;;5017959;28;58656;-60
2023/05/15 09:19:07;;;;;;;2.00;1.90;;;;;;;;;;5025641;28;59426;-60
2023/05/15 09:21:33;;;;;;;2.40;2.20;;;;;;;;;;5030519;28;58272;-57
2023/05/15 09:24:18;;;;;;;2.10;2.00;;;;;;;;;;5028559;28;58524;-60
2023/05/15 09:26:45;;;;;;;2.08;1.98;;;;;;;;;;5009221;28;58757;-60
2023/05/15 09:29:10;;;;;;;2.42;2.22;;;;;;;;;;5030627;28;58668;-60
2023/05/15 09:31:36;;;;;;;2.47;2.27;;;;;;;;;;5029555;28;58418;-60
2023/05/15 09:34:03;;;;;;;3.13;2.20;;;;;;;;;;5029449;28;58362;-60
2023/05/15 09:36:29;;;;;;;2.20;2.10;;;;;;;;;;5029916;28;58575;-60
2023/05/15 09:38:57;;;;;;;2.00;1.83;;;;;;;;;;5022927;28;58585;-60
2023/05/15 09:41:23;;;;;;;2.35;2.15;;;;;;;;;;5028390;28;58307;-58
2023/05/15 09:43:48;;;;;;;1.60;1.50;;;;;;;;;;5028690;28;58318;-59
2023/05/15 09:46:15;;;;;;;2.20;2.08;;;;;;;;;;5028261;28;58767;-60
2023/05/15 09:48:41;;;;;;;1.90;1.80;;;;;;;;;;5023442;28;58474;-59
2023/05/15 09:51:13;;;;;;;1.98;1.88;;;;;;;;;;5030113;28;58400;-59
2023/05/15 09:53:38;;;;;;;2.20;2.10;;;;;;;;;;5027396;28;58601;-59
2023/05/15 09:56:03;;;;;;;1.80;1.70;;;;;;;;;;5029632;28;58430;-59
2023/05/15 09:58:29;;;;;;;1.93;1.83;;;;;;;;;;5021581;28;58718;-60
2023/05/15 10:00:57;;;;;;;1.73;1.63;;;;;;;;;;5028889;28;58518;-60
2023/05/15 10:03:23;;;;;;;2.22;2.03;;;;;;;;;;5028183;28;58798;-59
2023/05/15 10:05:48;;;;;;;2.63;2.42;;;;;;;;;;5028762;28;58514;-60
2023/05/15 10:08:14;;;;;;;1.90;1.80;;;;;;;;;;5027319;28;58286;-60
2023/05/15 10:10:40;;;;;;;2.05;1.95;;;;;;;;;;5026254;28;59603;-60
2023/05/15 10:13:06;;;;;;;1.60;1.50;;;;;;;;;;5026674;28;58559;-59
2023/05/15 10:15:32;;;;;;;2.10;2.00;;;;;;;;;;5029155;28;58393;-60
2023/05/15 10:17:57;;;;;;;1.90;1.80;;;;;;;;;;5027740;28;59311;-59
2023/05/15 10:20:23;;;;;;;1.85;1.75;;;;;;;;;;5023103;28;58327;-58
2023/05/15 10:22:49;;;;;;;2.10;1.90;;;;;;;;;;5029318;28;58873;-59
2023/05/15 10:25:17;;;;;;;2.08;1.98;;;;;;;;;;5029037;28;58839;-60
2023/05/15 10:27:42;;;;;;;2.28;2.08;;;;;;;;;;5028534;28;57937;-60
2023/05/15 10:30:11;;;;;;;2.78;2.40;;;;;;;;;;5022682;28;58464;-60
2023/05/15 10:32:38;;;;;;;1.98;1.88;;;;;;;;;;5026733;28;58730;-58
2023/05/15 10:35:03;;;;;;;2.00;1.90;;;;;;;;;;5027982;28;58592;-60
2023/05/15 10:37:29;;;;;;;2.13;1.93;;;;;;;;;;5028977;28;59041;-60
2023/05/15 10:39:56;;;;;;;2.90;2.70;;;;;;;;;;5021495;28;58461;-59
2023/05/15 10:42:23;;;;;;;1.88;1.77;;;;;;;;;;5029750;28;58644;-60
2023/05/15 10:44:49;;;;;;;2.28;2.10;;;;;;;;;;5028854;28;58742;-59
2023/05/15 10:47:14;;;;;;;2.60;2.40;;;;;;;;;;5029063;28;58777;-57
2023/05/15 10:49:39;;;;;;;2.13;2.00;;;;;;;;;;5027308;28;59813;-60
2023/05/15 10:52:05;;;;;;;2.45;2.25;;;;;;;;;;5023645;28;58389;-59
2023/05/15 10:54:30;;;;;;;2.53;2.33;;;;;;;;;;5027862;28;58475;-59
2023/05/15 10:56:55;;;;;;;2.23;2.07;;;;;;;;;;5028632;28;58351;-59
2023/05/15 10:59:28;;;;;;;2.57;2.37;;;;;;;;;;5027708;28;58510;-60
2023/05/15 11:01:54;;;;;;;2.13;1.92;;;;;;;;;;5020479;28;58573;-60
2023/05/15 11:04:21;;;;;;;2.53;2.33;;;;;;;;;;5028709;28;58755;-59
2023/05/15 11:06:47;;;;;;;2.15;2.05;;;;;;;;;;5028760;28;58397;-60
2023/05/15 11:09:18;;;;;;;2.13;2.03;;;;;;;;;;5028043;28;58302;-60
2023/05/15 11:11:54;;;;;;;2.83;2.63;;;;;;;;;;5019480;28;58815;-60
2023/05/15 11:14:20;;;;;;;2.40;2.22;;;;;;;;;;5027339;28;58654;-59
2023/05/15 11:16:51;;;;;;;2.35;2.15;;;;;;;;;;5029427;28;58414;-59
2023/05/15 11:19:36;;;;;;;1.77;1.67;;;;;;;;;;5026192;28;58336;-60
2023/05/15 11:22:07;;;;;;;2.13;2.03;;;;;;;;;;5021762;28;58875;-59
2023/05/15 11:24:46;;;;;;;2.13;2.03;;;;;;;;;;5027004;28;58879;-59
2023/05/15 11:27:12;;;;;;;2.35;2.25;;;;;;;;;;5028519;28;58382;-60
2023/05/15 11:29:57;;;;;;;2.00;1.90;;;;;;;;;;5027391;28;59915;-60
2023/05/15 11:32:40;;;;;;;2.38;2.17;;;;;;;;;;5021818;28;59103;-60
2023/05/15 11:35:26;;;;;;;2.30;2.10;;;;;;;;;;5028243;28;58331;-60
2023/05/15 11:37:58;;;;;;;2.78;2.58;;;;;;;;;;5025844;28;62187;-60
2023/05/15 11:40:26;;;;;;;1.88;1.77;;;;;;;;;;5023760;28;58689;-59
2023/05/15 11:43:15;;;;;;;2.20;2.10;;;;;;;;;;5016301;28;58427;-59
2023/05/15 11:45:40;;;;;;;1.98;1.88;;;;;;;;;;5020633;28;58824;-60
2023/05/15 11:48:07;;;;;;;2.42;2.22;;;;;;;;;;5021102;28;58705;-60
2023/05/15 11:50:33;;;;;;;4.28;2.80;;;;;;;;;;5023783;28;59061;-60
2023/05/15 11:53:03;;;;;;;2.60;2.40;;;;;;;;;;5025169;28;58891;-59
2023/05/15 11:55:29;;;;;;;6.82;2.95;;;;;;;;;;5021262;28;58750;-60
2023/05/15 11:57:54;;;;;;;2.70;2.50;;;;;;;;;;5022349;28;58480;-59
2023/05/15 12:00:20;;;;;;;2.58;2.38;;;;;;;;;;5023030;28;58295;-59
2023/05/15 12:02:45;;;;;;;2.85;2.65;;;;;;;;;;5024558;28;58391;-58
2023/05/15 12:05:10;;;;;;;2.77;2.57;;;;;;;;;;5019584;28;61843;-60
2023/05/15 12:07:36;;;;;;;4.57;2.60;;;;;;;;;;5027689;28;58370;-60
2023/05/15 12:10:02;;;;;;;2.90;2.53;;;;;;;;;;5028104;28;58624;-59
2023/05/15 12:12:27;;;;;;;3.17;2.80;;;;;;;;;;5024990;28;58594;-59
2023/05/15 12:14:56;;;;;;;6.73;2.83;;;;;;;;;;5019513;28;58416;-60
2023/05/15 12:17:22;;;;;;;5.25;2.80;;;;;;;;;;5027090;28;58493;-60
2023/05/15 12:19:47;;;;;;;2.83;2.53;;;;;;;;;;5026410;28;59448;-59
2023/05/15 12:22:12;;;;;;;3.03;2.83;;;;;;;;;;5024244;28;58693;-59
2023/05/15 12:24:38;;;;;;;3.00;2.70;;;;;;;;;;5025903;28;58322;-60
2023/05/15 12:27:03;;;;;;;2.83;2.25;;;;;;;;;;5023030;28;58360;-60
2023/05/15 12:29:29;;;;;;;2.93;2.47;;;;;;;;;;5026144;28;58323;-59
2023/05/15 12:31:54;;;;;;;3.15;2.40;;;;;;;;;;5019688;28;59417;-59
2023/05/15 12:34:20;;;;;;;2.60;2.40;;;;;;;;;;5020362;28;58326;-60
2023/05/15 12:36:45;;;;;;;2.92;2.13;;;;;;;;;;5014005;28;58713;-59
2023/05/15 12:39:10;;;;;;;4.30;2.30;;;;;;;;;;5018641;28;58608;-58
2023/05/15 12:41:36;;;;;;;7.73;3.03;;;;;;;;;;5018459;28;58334;-60
2023/05/15 12:44:01;;;;;;;4.32;2.55;;;;;;;;;;5024616;28;58381;-60
2023/05/15 12:46:30;;;;;;;3.93;2.57;;;;;;;;;;5018640;28;58864;-55
2023/05/15 12:48:59;;;;;;;4.00;2.50;;;;;;;;;;5019480;28;58363;-59
2023/05/15 12:51:24;;;;;;;2.13;1.92;;;;;;;;;;5017096;28;58365;-61
2023/05/15 12:53:51;;;;;;;4.40;2.10;;;;;;;;;;5020679;28;59056;-61
2023/05/15 12:56:16;;;;;;;3.13;2.53;;;;;;;;;;5022995;28;58901;-61
2023/05/15 12:58:41;;;;;;;3.30;2.17;;;;;;;;;;5015557;28;58580;-60
2023/05/15 13:01:07;;;;;;;3.80;2.70;;;;;;;;;;5021047;28;58375;-61
2023/05/15 13:03:32;;;;;;;4.20;2.03;;;;;;;;;;5024429;28;58896;-61
2023/05/15 13:05:57;;;;;;;4.25;2.60;;;;;;;;;;5018651;28;58636;-58
2023/05/15 13:08:23;;;;;;;4.23;2.73;;;;;;;;;;5019236;28;58817;-58
2023/05/15 13:10:54;;;;;;;4.53;2.57;;;;;;;;;;5021849;28;58727;-59
2023/05/15 13:13:20;;;;;;;3.53;2.30;;;;;;;;;;5022177;28;58542;-61
2023/05/15 13:15:47;;;;;;;3.53;2.20;;;;;;;;;;5022429;28;58404;-60
2023/05/15 13:18:13;;;;;;;2.35;2.13;;;;;;;;;;5015416;28;58485;-60
2023/05/15 13:20:45;;;;;;;2.38;2.17;;;;;;;;;;5021746;28;58706;-61
2023/05/15 13:23:11;;;;;;;2.65;2.28;;;;;;;;;;5019079;28;59862;-61
2023/05/15 13:25:36;;;;;;;2.78;2.47;;;;;;;;;;5022088;28;58818;-60
2023/05/15 13:28:02;;;;;;;3.23;2.97;;;;;;;;;;5018469;28;59411;-60
2023/05/15 13:30:28;;;;;;;2.67;2.35;;;;;;;;;;5021564;28;59397;-61
2023/05/15 13:32:53;;;;;;;1.70;1.60;;;;;;;;;;5019914;28;58934;-59
2023/05/15 13:35:18;;;;;;;2.05;1.95;;;;;;;;;;5020495;28;58356;-60
2023/05/15 13:37:43;;;;;;;3.33;2.07;;;;;;;;;;5021571;28;58597;-61
2023/05/15 13:40:09;;;;;;;8.88;2.88;;;;;;;;;;5016391;28;59579;-61
2023/05/15 13:42:35;;;;;;;2.08;1.92;;;;;;;;;;5019457;28;58487;-61
2023/05/15 13:45:01;;;;;;;4.05;3.05;;;;;;;;;;5018823;28;58554;-61
2023/05/15 13:47:26;;;;;;;2.50;1.88;;;;;;;;;;5019852;28;58350;-58
2023/05/15 13:49:51;;;;;;;2.83;1.95;;;;;;;;;;5016642;28;59018;-60
2023/05/15 13:52:17;;;;;;;1.90;1.70;;;;;;;;;;5018023;28;58701;-61
2023/05/15 13:54:42;;;;;;;1.98;1.77;;;;;;;;;;5025726;28;58731;-60
2023/05/15 13:57:07;;;;;;;2.87;2.27;;;;;;;;;;5022751;28;59529;-60
2023/05/15 13:59:32;;;;;;;2.30;2.10;;;;;;;;;;5027284;28;59329;-61
2023/05/15 14:01:57;;;;;;;1.90;1.80;;;;;;;;;;5026699;28;58119;-60
2023/05/15 14:04:23;;;;;;;3.88;2.00;;;;;;;;;;5028458;28;58645;-62
2023/05/15 14:06:48;;;;;;;2.55;2.33;;;;;;;;;;5022542;28;58526;-60
2023/05/15 14:09:13;;;;;;;2.67;1.65;;;;;;;;;;5019057;28;57964;-62
2023/05/15 14:11:38;;;;;;;2.22;2.05;;;;;;;;;;5024270;28;58735;-62
2023/05/15 14:14:03;;;;;;;4.97;1.83;;;;;;;;;;5022513;28;58971;-62
2023/05/15 14:16:28;;;;;;;2.10;1.80;;;;;;;;;;5015823;28;58742;-63
2023/05/15 14:18:53;;;;;;;2.65;1.55;;;;;;;;;;5021184;28;58612;-62
2023/05/15 14:21:19;;;;;;;2.17;1.98;;;;;;;;;;5020668;28;58207;-62
2023/05/15 14:23:44;;;;;;;4.60;2.35;;;;;;;;;;5019775;28;58612;-61
2023/05/15 14:26:09;;;;;;;1.65;1.55;;;;;;;;;;5015088;28;58606;-61
2023/05/15 14:28:34;;;;;;;7.77;2.23;;;;;;;;;;5019474;28;58873;-62
2023/05/15 14:31:00;;;;;;;2.13;1.70;;;;;;;;;;5013810;28;58897;-62
2023/05/15 14:33:25;;;;;;;3.05;1.88;;;;;;;;;;5016707;28;58522;-61
2023/05/15 14:35:50;;;;;;;3.88;1.92;;;;;;;;;;5016385;28;59176;-61
2023/05/15 14:38:16;;;;;;;2.45;1.52;;;;;;;;;;5014014;28;58694;-59